sensor_id;sensor_type;location;lat;lon;timestamp;P1;durP1;ratioP1;P2;durP2;ratioP2
10987;SDS011;5547;42.672;23.230;2023-05-10T00:02:05;13.13;;;8.43;;
10987;SDS011;5547;42.672;23.230;2023-05-10T00:05:06;13.45;;;8.82;;
10987;SDS011;5547;42.672;23.230;2023-05-10T00:08:07;14.45;;;8.85;;
10987;SDS011;5547;42.672;23.230;2023-05-10T00:11:07;14.23;;;9.43;;
10987;SDS011;5547;42.672;23.230;2023-05-10T00:14:08;13.20;;;9.60;;
10987;SDS011;5547;42.672;23.230;2023-05-10T00:17:08;13.87;;;9.37;;
10987;SDS011;5547;42.672;23.230;2023-05-10T00:20:09;14.93;;;9.70;;
10987;SDS011;5547;42.672;23.230;2023-05-10T00:23:10;15.70;;;9.80;;
10987;SDS011;5547;42.672;23.230;2023-05-10T00:26:10;13.20;;;9.63;;
10987;SDS011;5547;42.672;23.230;2023-05-10T00:29:11;14.13;;;10.33;;
10987;SDS011;5547;42.672;23.230;2023-05-10T00:32:11;15.03;;;10.70;;
10987;SDS011;5547;42.672;23.230;2023-05-10T00:35:13;13.63;;;10.10;;
10987;SDS011;5547;42.672;23.230;2023-05-10T00:38:14;14.30;;;10.17;;
10987;SDS011;5547;42.672;23.230;2023-05-10T00:41:14;12.30;;;9.00;;
10987;SDS011;5547;42.672;23.230;2023-05-10T00:44:15;11.80;;;9.07;;
10987;SDS011;5547;42.672;23.230;2023-05-10T00:47:16;12.10;;;10.03;;
10987;SDS011;5547;42.672;23.230;2023-05-10T00:50:17;12.98;;;9.98;;
10987;SDS011;5547;42.672;23.230;2023-05-10T00:53:17;14.65;;;10.80;;
10987;SDS011;5547;42.672;23.230;2023-05-10T00:56:18;14.23;;;10.73;;
10987;SDS011;5547;42.672;23.230;2023-05-10T00:59:22;12.77;;;10.10;;
10987;SDS011;5547;42.672;23.230;2023-05-10T01:02:23;14.15;;;10.38;;
10987;SDS011;5547;42.672;23.230;2023-05-10T01:05:24;15.43;;;11.38;;
10987;SDS011;5547;42.672;23.230;2023-05-10T01:08:25;15.67;;;11.33;;
10987;SDS011;5547;42.672;23.230;2023-05-10T01:11:26;14.90;;;11.10;;
10987;SDS011;5547;42.672;23.230;2023-05-10T01:14:26;14.80;;;11.23;;
10987;SDS011;5547;42.672;23.230;2023-05-10T01:17:28;15.20;;;11.20;;
10987;SDS011;5547;42.672;23.230;2023-05-10T01:20:31;14.75;;;10.25;;
10987;SDS011;5547;42.672;23.230;2023-05-10T01:42:54;13.27;;;10.57;;
10987;SDS011;5547;42.672;23.230;2023-05-10T01:46:07;14.32;;;10.85;;
10987;SDS011;5547;42.672;23.230;2023-05-10T01:49:16;13.93;;;10.68;;
10987;SDS011;5547;42.672;23.230;2023-05-10T01:52:25;12.43;;;9.45;;
10987;SDS011;5547;42.672;23.230;2023-05-10T01:55:30;12.38;;;9.70;;
10987;SDS011;5547;42.672;23.230;2023-05-10T01:58:32;12.18;;;9.40;;
10987;SDS011;5547;42.672;23.230;2023-05-10T02:01:35;9.93;;;8.13;;
10987;SDS011;5547;42.672;23.230;2023-05-10T02:04:37;10.45;;;8.95;;
10987;SDS011;5547;42.672;23.230;2023-05-10T02:07:39;9.85;;;8.48;;
10987;SDS011;5547;42.672;23.230;2023-05-10T02:10:41;11.70;;;8.85;;
10987;SDS011;5547;42.672;23.230;2023-05-10T02:13:44;10.32;;;8.75;;
10987;SDS011;5547;42.672;23.230;2023-05-10T02:16:48;11.27;;;8.50;;
10987;SDS011;5547;42.672;23.230;2023-05-10T02:19:51;10.05;;;8.48;;
10987;SDS011;5547;42.672;23.230;2023-05-10T02:22:52;12.32;;;7.68;;
10987;SDS011;5547;42.672;23.230;2023-05-10T02:25:55;9.95;;;7.90;;
10987;SDS011;5547;42.672;23.230;2023-05-10T02:28:57;8.43;;;7.18;;
10987;SDS011;5547;42.672;23.230;2023-05-10T02:31:58;8.00;;;7.10;;
10987;SDS011;5547;42.672;23.230;2023-05-10T02:35:01;9.13;;;7.00;;
10987;SDS011;5547;42.672;23.230;2023-05-10T02:38:02;10.17;;;8.73;;
10987;SDS011;5547;42.672;23.230;2023-05-10T02:41:05;8.82;;;7.32;;
10987;SDS011;5547;42.672;23.230;2023-05-10T02:44:08;9.60;;;7.70;;
10987;SDS011;5547;42.672;23.230;2023-05-10T02:47:10;8.60;;;7.32;;
10987;SDS011;5547;42.672;23.230;2023-05-10T02:50:11;8.20;;;6.67;;
10987;SDS011;5547;42.672;23.230;2023-05-10T02:53:15;8.95;;;7.43;;
10987;SDS011;5547;42.672;23.230;2023-05-10T02:56:20;8.52;;;7.50;;
10987;SDS011;5547;42.672;23.230;2023-05-10T02:59:31;9.00;;;6.90;;
10987;SDS011;5547;42.672;23.230;2023-05-10T03:02:32;9.23;;;6.57;;
10987;SDS011;5547;42.672;23.230;2023-05-10T03:05:33;9.23;;;7.37;;
10987;SDS011;5547;42.672;23.230;2023-05-10T03:08:33;9.37;;;7.90;;
10987;SDS011;5547;42.672;23.230;2023-05-10T03:18:22;8.87;;;7.10;;
10987;SDS011;5547;42.672;23.230;2023-05-10T03:21:33;9.20;;;7.57;;
10987;SDS011;5547;42.672;23.230;2023-05-10T03:24:38;8.25;;;7.28;;
10987;SDS011;5547;42.672;23.230;2023-05-10T03:27:41;8.60;;;7.00;;
10987;SDS011;5547;42.672;23.230;2023-05-10T03:30:44;9.60;;;8.10;;
10987;SDS011;5547;42.672;23.230;2023-05-10T03:33:46;10.45;;;7.93;;
10987;SDS011;5547;42.672;23.230;2023-05-10T03:36:49;9.10;;;7.43;;
10987;SDS011;5547;42.672;23.230;2023-05-10T03:39:50;8.43;;;7.17;;
10987;SDS011;5547;42.672;23.230;2023-05-10T03:42:50;8.50;;;7.20;;
10987;SDS011;5547;42.672;23.230;2023-05-10T03:45:51;9.95;;;7.93;;
10987;SDS011;5547;42.672;23.230;2023-05-10T03:48:51;9.53;;;8.07;;
10987;SDS011;5547;42.672;23.230;2023-05-10T03:51:51;9.97;;;7.93;;
10987;SDS011;5547;42.672;23.230;2023-05-10T03:54:53;10.20;;;8.13;;
10987;SDS011;5547;42.672;23.230;2023-05-10T03:57:57;9.20;;;7.68;;
10987;SDS011;5547;42.672;23.230;2023-05-10T04:00:57;11.13;;;7.53;;
10987;SDS011;5547;42.672;23.230;2023-05-10T04:03:58;10.25;;;8.00;;
10987;SDS011;5547;42.672;23.230;2023-05-10T04:06:58;10.27;;;8.17;;
10987;SDS011;5547;42.672;23.230;2023-05-10T04:09:58;9.00;;;7.67;;
10987;SDS011;5547;42.672;23.230;2023-05-10T04:12:59;9.07;;;7.63;;
10987;SDS011;5547;42.672;23.230;2023-05-10T04:15:59;8.27;;;7.23;;
10987;SDS011;5547;42.672;23.230;2023-05-10T04:19:00;10.30;;;8.07;;
10987;SDS011;5547;42.672;23.230;2023-05-10T04:22:01;9.37;;;7.80;;
10987;SDS011;5547;42.672;23.230;2023-05-10T04:25:02;8.85;;;7.78;;
10987;SDS011;5547;42.672;23.230;2023-05-10T04:28:02;8.73;;;7.23;;
10987;SDS011;5547;42.672;23.230;2023-05-10T04:31:07;9.97;;;7.90;;
10987;SDS011;5547;42.672;23.230;2023-05-10T04:34:08;9.85;;;7.88;;
10987;SDS011;5547;42.672;23.230;2023-05-10T04:37:08;9.90;;;8.07;;
10987;SDS011;5547;42.672;23.230;2023-05-10T04:40:09;9.40;;;7.03;;
10987;SDS011;5547;42.672;23.230;2023-05-10T04:43:10;10.27;;;7.70;;
10987;SDS011;5547;42.672;23.230;2023-05-10T04:46:10;9.57;;;7.97;;
10987;SDS011;5547;42.672;23.230;2023-05-10T04:49:10;10.05;;;8.40;;
10987;SDS011;5547;42.672;23.230;2023-05-10T04:52:11;9.70;;;8.07;;
10987;SDS011;5547;42.672;23.230;2023-05-10T04:55:11;9.33;;;7.80;;
10987;SDS011;5547;42.672;23.230;2023-05-10T04:58:12;10.23;;;8.70;;
10987;SDS011;5547;42.672;23.230;2023-05-10T05:01:12;10.17;;;8.03;;
10987;SDS011;5547;42.672;23.230;2023-05-10T05:04:13;9.97;;;7.53;;
10987;SDS011;5547;42.672;23.230;2023-05-10T05:07:14;9.20;;;7.43;;
10987;SDS011;5547;42.672;23.230;2023-05-10T05:10:14;10.70;;;8.15;;
10987;SDS011;5547;42.672;23.230;2023-05-10T05:13:15;9.27;;;7.87;;
10987;SDS011;5547;42.672;23.230;2023-05-10T05:16:15;9.17;;;7.80;;
10987;SDS011;5547;42.672;23.230;2023-05-10T05:19:16;8.88;;;7.57;;
10987;SDS011;5547;42.672;23.230;2023-05-10T05:22:16;8.07;;;6.60;;
10987;SDS011;5547;42.672;23.230;2023-05-10T05:25:17;9.17;;;7.50;;
10987;SDS011;5547;42.672;23.230;2023-05-10T05:28:18;10.50;;;8.23;;
10987;SDS011;5547;42.672;23.230;2023-05-10T05:31:21;10.85;;;9.40;;
10987;SDS011;5547;42.672;23.230;2023-05-10T05:34:22;9.77;;;8.50;;
10987;SDS011;5547;42.672;23.230;2023-05-10T05:37:22;11.70;;;8.80;;
10987;SDS011;5547;42.672;23.230;2023-05-10T05:40:24;11.60;;;9.18;;
10987;SDS011;5547;42.672;23.230;2023-05-10T05:43:24;11.77;;;8.20;;
10987;SDS011;5547;42.672;23.230;2023-05-10T05:46:25;9.48;;;8.25;;
10987;SDS011;5547;42.672;23.230;2023-05-10T05:49:25;11.93;;;9.63;;
10987;SDS011;5547;42.672;23.230;2023-05-10T05:52:25;12.00;;;9.40;;
10987;SDS011;5547;42.672;23.230;2023-05-10T05:55:26;10.30;;;7.83;;
10987;SDS011;5547;42.672;23.230;2023-05-10T05:58:27;12.93;;;10.25;;
10987;SDS011;5547;42.672;23.230;2023-05-10T06:01:27;11.53;;;10.33;;
10987;SDS011;5547;42.672;23.230;2023-05-10T06:04:28;11.93;;;9.97;;
10987;SDS011;5547;42.672;23.230;2023-05-10T06:07:28;14.02;;;10.30;;
10987;SDS011;5547;42.672;23.230;2023-05-10T06:10:29;15.73;;;11.17;;
10987;SDS011;5547;42.672;23.230;2023-05-10T06:13:30;14.10;;;10.80;;
10987;SDS011;5547;42.672;23.230;2023-05-10T06:16:32;13.07;;;10.77;;
10987;SDS011;5547;42.672;23.230;2023-05-10T06:19:33;13.03;;;10.10;;
10987;SDS011;5547;42.672;23.230;2023-05-10T06:22:33;13.45;;;10.45;;
10987;SDS011;5547;42.672;23.230;2023-05-10T06:25:33;14.07;;;10.63;;
10987;SDS011;5547;42.672;23.230;2023-05-10T06:28:34;13.23;;;10.90;;
10987;SDS011;5547;42.672;23.230;2023-05-10T06:31:34;16.20;;;11.70;;
10987;SDS011;5547;42.672;23.230;2023-05-10T06:34:35;13.27;;;9.70;;
10987;SDS011;5547;42.672;23.230;2023-05-10T06:37:35;13.00;;;9.55;;
10987;SDS011;5547;42.672;23.230;2023-05-10T06:40:35;15.40;;;10.93;;
10987;SDS011;5547;42.672;23.230;2023-05-10T06:43:36;14.70;;;11.50;;
10987;SDS011;5547;42.672;23.230;2023-05-10T06:46:39;15.67;;;11.60;;
10987;SDS011;5547;42.672;23.230;2023-05-10T06:49:41;13.02;;;10.73;;
10987;SDS011;5547;42.672;23.230;2023-05-10T06:52:42;13.77;;;10.10;;
10987;SDS011;5547;42.672;23.230;2023-05-10T06:55:42;14.77;;;11.33;;
10987;SDS011;5547;42.672;23.230;2023-05-10T06:58:42;17.27;;;11.20;;
10987;SDS011;5547;42.672;23.230;2023-05-10T07:01:43;14.03;;;10.37;;
10987;SDS011;5547;42.672;23.230;2023-05-10T07:04:43;13.13;;;10.40;;
10987;SDS011;5547;42.672;23.230;2023-05-10T07:07:44;13.23;;;10.27;;
10987;SDS011;5547;42.672;23.230;2023-05-10T07:10:44;12.30;;;10.17;;
10987;SDS011;5547;42.672;23.230;2023-05-10T07:13:45;11.50;;;9.33;;
10987;SDS011;5547;42.672;23.230;2023-05-10T07:16:46;12.40;;;9.10;;
10987;SDS011;5547;42.672;23.230;2023-05-10T07:19:47;14.57;;;10.73;;
10987;SDS011;5547;42.672;23.230;2023-05-10T07:22:47;15.15;;;10.60;;
10987;SDS011;5547;42.672;23.230;2023-05-10T07:25:48;14.80;;;10.97;;
10987;SDS011;5547;42.672;23.230;2023-05-10T07:28:51;13.88;;;10.57;;
10987;SDS011;5547;42.672;23.230;2023-05-10T07:31:51;13.77;;;10.10;;
10987;SDS011;5547;42.672;23.230;2023-05-10T07:34:52;15.07;;;10.07;;
10987;SDS011;5547;42.672;23.230;2023-05-10T07:37:53;13.57;;;10.63;;
10987;SDS011;5547;42.672;23.230;2023-05-10T07:40:53;12.40;;;10.37;;
10987;SDS011;5547;42.672;23.230;2023-05-10T07:43:53;12.23;;;9.90;;
10987;SDS011;5547;42.672;23.230;2023-05-10T07:46:54;14.20;;;10.03;;
10987;SDS011;5547;42.672;23.230;2023-05-10T07:49:55;13.75;;;10.02;;
10987;SDS011;5547;42.672;23.230;2023-05-10T07:52:56;13.13;;;10.00;;
10987;SDS011;5547;42.672;23.230;2023-05-10T07:55:59;13.27;;;9.80;;
10987;SDS011;5547;42.672;23.230;2023-05-10T07:59:20;14.93;;;11.30;;
10987;SDS011;5547;42.672;23.230;2023-05-10T08:02:20;12.98;;;9.88;;
10987;SDS011;5547;42.672;23.230;2023-05-10T08:05:21;13.50;;;10.37;;
10987;SDS011;5547;42.672;23.230;2023-05-10T08:08:21;12.83;;;9.93;;
10987;SDS011;5547;42.672;23.230;2023-05-10T08:11:24;14.10;;;10.50;;
10987;SDS011;5547;42.672;23.230;2023-05-10T08:14:24;12.70;;;10.27;;
10987;SDS011;5547;42.672;23.230;2023-05-10T08:17:25;13.27;;;10.15;;
10987;SDS011;5547;42.672;23.230;2023-05-10T08:20:25;12.83;;;10.40;;
10987;SDS011;5547;42.672;23.230;2023-05-10T08:23:25;14.00;;;11.23;;
10987;SDS011;5547;42.672;23.230;2023-05-10T08:26:26;13.67;;;11.00;;
10987;SDS011;5547;42.672;23.230;2023-05-10T08:29:26;13.02;;;10.43;;
10987;SDS011;5547;42.672;23.230;2023-05-10T08:32:27;13.47;;;10.07;;
10987;SDS011;5547;42.672;23.230;2023-05-10T08:35:27;13.07;;;10.73;;
10987;SDS011;5547;42.672;23.230;2023-05-10T08:38:27;13.47;;;10.77;;
10987;SDS011;5547;42.672;23.230;2023-05-10T08:41:28;13.60;;;11.93;;
10987;SDS011;5547;42.672;23.230;2023-05-10T08:44:32;15.77;;;12.67;;
10987;SDS011;5547;42.672;23.230;2023-05-10T08:47:36;14.15;;;11.50;;
10987;SDS011;5547;42.672;23.230;2023-05-10T08:50:39;14.33;;;10.87;;
10987;SDS011;5547;42.672;23.230;2023-05-10T08:53:40;11.98;;;10.02;;
10987;SDS011;5547;42.672;23.230;2023-05-10T08:56:41;11.77;;;10.27;;
10987;SDS011;5547;42.672;23.230;2023-05-10T08:59:41;12.10;;;9.50;;
10987;SDS011;5547;42.672;23.230;2023-05-10T09:02:42;12.40;;;10.30;;
10987;SDS011;5547;42.672;23.230;2023-05-10T09:05:43;12.20;;;10.07;;
10987;SDS011;5547;42.672;23.230;2023-05-10T09:08:44;12.52;;;10.38;;
10987;SDS011;5547;42.672;23.230;2023-05-10T09:11:46;12.85;;;10.88;;
10987;SDS011;5547;42.672;23.230;2023-05-10T09:14:46;11.17;;;9.43;;
10987;SDS011;5547;42.672;23.230;2023-05-10T09:17:48;11.27;;;10.00;;
10987;SDS011;5547;42.672;23.230;2023-05-10T09:20:49;12.18;;;10.95;;
10987;SDS011;5547;42.672;23.230;2023-05-10T09:23:50;12.07;;;10.27;;
10987;SDS011;5547;42.672;23.230;2023-05-10T09:26:50;12.40;;;10.23;;
10987;SDS011;5547;42.672;23.230;2023-05-10T09:29:51;11.93;;;9.43;;
10987;SDS011;5547;42.672;23.230;2023-05-10T09:32:55;13.90;;;10.40;;
10987;SDS011;5547;42.672;23.230;2023-05-10T09:36:05;12.02;;;9.82;;
10987;SDS011;5547;42.672;23.230;2023-05-10T09:39:08;11.02;;;9.27;;
10987;SDS011;5547;42.672;23.230;2023-05-10T09:42:08;12.00;;;10.20;;
10987;SDS011;5547;42.672;23.230;2023-05-10T09:45:10;9.60;;;8.20;;
10987;SDS011;5547;42.672;23.230;2023-05-10T09:48:10;12.30;;;10.07;;
10987;SDS011;5547;42.672;23.230;2023-05-10T09:51:18;11.23;;;10.10;;
10987;SDS011;5547;42.672;23.230;2023-05-10T09:54:22;10.35;;;9.23;;
10987;SDS011;5547;42.672;23.230;2023-05-10T09:57:24;10.98;;;9.88;;
10987;SDS011;5547;42.672;23.230;2023-05-10T10:00:25;9.75;;;8.68;;
10987;SDS011;5547;42.672;23.230;2023-05-10T10:03:27;11.32;;;10.13;;
10987;SDS011;5547;42.672;23.230;2023-05-10T10:06:29;11.73;;;10.25;;
10987;SDS011;5547;42.672;23.230;2023-05-10T10:09:36;10.65;;;9.55;;
10987;SDS011;5547;42.672;23.230;2023-05-10T10:12:36;11.18;;;9.98;;
10987;SDS011;5547;42.672;23.230;2023-05-10T10:15:38;10.55;;;9.45;;
10987;SDS011;5547;42.672;23.230;2023-05-10T10:18:38;11.23;;;10.13;;
10987;SDS011;5547;42.672;23.230;2023-05-10T10:21:39;11.23;;;10.02;;
10987;SDS011;5547;42.672;23.230;2023-05-10T10:24:39;11.53;;;9.97;;
10987;SDS011;5547;42.672;23.230;2023-05-10T10:30:53;10.00;;;9.00;;
10987;SDS011;5547;42.672;23.230;2023-05-10T10:33:59;12.17;;;10.70;;
10987;SDS011;5547;42.672;23.230;2023-05-10T10:37:07;10.77;;;9.77;;
10987;SDS011;5547;42.672;23.230;2023-05-10T10:40:26;11.33;;;10.10;;
10987;SDS011;5547;42.672;23.230;2023-05-10T10:43:29;11.05;;;9.85;;
10987;SDS011;5547;42.672;23.230;2023-05-10T10:46:30;11.68;;;10.48;;
10987;SDS011;5547;42.672;23.230;2023-05-10T10:49:32;11.55;;;9.82;;
10987;SDS011;5547;42.672;23.230;2023-05-10T10:52:37;13.98;;;11.68;;
10987;SDS011;5547;42.672;23.230;2023-05-10T10:55:46;10.50;;;9.35;;
10987;SDS011;5547;42.672;23.230;2023-05-10T10:58:49;11.23;;;10.10;;
10987;SDS011;5547;42.672;23.230;2023-05-10T11:01:53;11.82;;;10.63;;
10987;SDS011;5547;42.672;23.230;2023-05-10T11:04:53;10.43;;;9.33;;
10987;SDS011;5547;42.672;23.230;2023-05-10T11:07:54;11.10;;;9.30;;
10987;SDS011;5547;42.672;23.230;2023-05-10T11:14:02;12.23;;;9.38;;
10987;SDS011;5547;42.672;23.230;2023-05-10T11:17:24;12.55;;;10.15;;
10987;SDS011;5547;42.672;23.230;2023-05-10T11:20:27;11.68;;;9.02;;
10987;SDS011;5547;42.672;23.230;2023-05-10T11:23:57;10.20;;;9.10;;
10987;SDS011;5547;42.672;23.230;2023-05-10T11:26:59;10.40;;;9.32;;
10987;SDS011;5547;42.672;23.230;2023-05-10T11:30:00;11.25;;;9.85;;
10987;SDS011;5547;42.672;23.230;2023-05-10T11:33:01;9.17;;;7.93;;
10987;SDS011;5547;42.672;23.230;2023-05-10T11:36:01;10.77;;;8.70;;
10987;SDS011;5547;42.672;23.230;2023-05-10T11:39:02;10.80;;;9.03;;
10987;SDS011;5547;42.672;23.230;2023-05-10T11:42:03;10.10;;;8.83;;
10987;SDS011;5547;42.672;23.230;2023-05-10T11:45:04;11.10;;;9.30;;
10987;SDS011;5547;42.672;23.230;2023-05-10T11:48:05;10.98;;;9.07;;
10987;SDS011;5547;42.672;23.230;2023-05-10T11:51:06;10.47;;;9.27;;
10987;SDS011;5547;42.672;23.230;2023-05-10T11:54:08;10.23;;;8.70;;
10987;SDS011;5547;42.672;23.230;2023-05-10T11:57:11;10.77;;;8.80;;
10987;SDS011;5547;42.672;23.230;2023-05-10T12:00:12;11.27;;;9.60;;
10987;SDS011;5547;42.672;23.230;2023-05-10T12:03:14;11.82;;;10.52;;
10987;SDS011;5547;42.672;23.230;2023-05-10T12:06:14;11.23;;;9.67;;
10987;SDS011;5547;42.672;23.230;2023-05-10T12:09:16;12.60;;;10.20;;
10987;SDS011;5547;42.672;23.230;2023-05-10T12:12:16;12.23;;;10.23;;
10987;SDS011;5547;42.672;23.230;2023-05-10T12:15:23;12.83;;;10.10;;
10987;SDS011;5547;42.672;23.230;2023-05-10T12:18:24;10.05;;;9.05;;
10987;SDS011;5547;42.672;23.230;2023-05-10T12:21:25;10.37;;;9.27;;
10987;SDS011;5547;42.672;23.230;2023-05-10T12:24:28;12.55;;;10.50;;
10987;SDS011;5547;42.672;23.230;2023-05-10T12:27:31;14.32;;;11.73;;
10987;SDS011;5547;42.672;23.230;2023-05-10T12:30:32;11.00;;;9.38;;
10987;SDS011;5547;42.672;23.230;2023-05-10T12:33:37;12.88;;;9.55;;
10987;SDS011;5547;42.672;23.230;2023-05-10T12:36:45;12.35;;;10.27;;
10987;SDS011;5547;42.672;23.230;2023-05-10T12:39:45;11.17;;;9.07;;
10987;SDS011;5547;42.672;23.230;2023-05-10T12:42:46;13.17;;;11.13;;
10987;SDS011;5547;42.672;23.230;2023-05-10T12:45:46;13.33;;;11.73;;
10987;SDS011;5547;42.672;23.230;2023-05-10T12:48:48;14.77;;;11.25;;
10987;SDS011;5547;42.672;23.230;2023-05-10T12:51:54;14.90;;;11.50;;
10987;SDS011;5547;42.672;23.230;2023-05-10T12:54:55;12.40;;;10.93;;
10987;SDS011;5547;42.672;23.230;2023-05-10T12:57:55;15.80;;;11.30;;
10987;SDS011;5547;42.672;23.230;2023-05-10T13:00:57;12.98;;;10.63;;
10987;SDS011;5547;42.672;23.230;2023-05-10T13:03:58;13.10;;;10.63;;
10987;SDS011;5547;42.672;23.230;2023-05-10T13:07:00;13.65;;;11.85;;
10987;SDS011;5547;42.672;23.230;2023-05-10T13:10:00;13.13;;;11.30;;
10987;SDS011;5547;42.672;23.230;2023-05-10T13:13:00;11.90;;;10.60;;
10987;SDS011;5547;42.672;23.230;2023-05-10T13:16:01;13.40;;;10.80;;
10987;SDS011;5547;42.672;23.230;2023-05-10T13:19:01;12.10;;;10.80;;
10987;SDS011;5547;42.672;23.230;2023-05-10T13:22:02;13.80;;;11.50;;
10987;SDS011;5547;42.672;23.230;2023-05-10T13:25:03;14.13;;;10.67;;
10987;SDS011;5547;42.672;23.230;2023-05-10T13:28:04;13.73;;;10.17;;
10987;SDS011;5547;42.672;23.230;2023-05-10T13:31:04;13.10;;;10.60;;
10987;SDS011;5547;42.672;23.230;2023-05-10T13:34:05;13.00;;;10.15;;
10987;SDS011;5547;42.672;23.230;2023-05-10T13:37:05;12.97;;;11.07;;
10987;SDS011;5547;42.672;23.230;2023-05-10T13:40:06;14.05;;;10.30;;
10987;SDS011;5547;42.672;23.230;2023-05-10T13:43:07;11.40;;;9.60;;
10987;SDS011;5547;42.672;23.230;2023-05-10T13:46:07;12.73;;;9.70;;
10987;SDS011;5547;42.672;23.230;2023-05-10T13:49:11;11.80;;;9.85;;
10987;SDS011;5547;42.672;23.230;2023-05-10T13:52:11;12.93;;;10.43;;
10987;SDS011;5547;42.672;23.230;2023-05-10T13:55:12;12.03;;;10.40;;
10987;SDS011;5547;42.672;23.230;2023-05-10T13:58:13;11.93;;;9.57;;
10987;SDS011;5547;42.672;23.230;2023-05-10T14:01:13;13.87;;;9.63;;
10987;SDS011;5547;42.672;23.230;2023-05-10T14:04:13;12.87;;;9.93;;
10987;SDS011;5547;42.672;23.230;2023-05-10T14:07:14;13.07;;;9.80;;
10987;SDS011;5547;42.672;23.230;2023-05-10T14:10:14;13.45;;;10.35;;
10987;SDS011;5547;42.672;23.230;2023-05-10T14:13:15;11.80;;;9.93;;
10987;SDS011;5547;42.672;23.230;2023-05-10T14:16:15;12.37;;;9.13;;
10987;SDS011;5547;42.672;23.230;2023-05-10T14:19:16;13.17;;;10.10;;
10987;SDS011;5547;42.672;23.230;2023-05-10T14:22:16;10.90;;;9.30;;
10987;SDS011;5547;42.672;23.230;2023-05-10T14:25:18;13.98;;;11.27;;
10987;SDS011;5547;42.672;23.230;2023-05-10T14:28:18;12.43;;;9.83;;
10987;SDS011;5547;42.672;23.230;2023-05-10T14:31:20;13.35;;;9.77;;
10987;SDS011;5547;42.672;23.230;2023-05-10T14:34:21;12.15;;;9.57;;
10987;SDS011;5547;42.672;23.230;2023-05-10T14:37:21;12.40;;;9.67;;
10987;SDS011;5547;42.672;23.230;2023-05-10T14:40:21;12.87;;;10.00;;
10987;SDS011;5547;42.672;23.230;2023-05-10T14:43:22;13.07;;;9.98;;
10987;SDS011;5547;42.672;23.230;2023-05-10T14:46:23;12.03;;;10.40;;
10987;SDS011;5547;42.672;23.230;2023-05-10T14:49:23;12.90;;;9.57;;
10987;SDS011;5547;42.672;23.230;2023-05-10T14:52:25;11.25;;;9.30;;
10987;SDS011;5547;42.672;23.230;2023-05-10T14:55:26;12.18;;;9.85;;
10987;SDS011;5547;42.672;23.230;2023-05-10T14:58:27;13.37;;;9.90;;
10987;SDS011;5547;42.672;23.230;2023-05-10T15:01:27;13.20;;;10.05;;
10987;SDS011;5547;42.672;23.230;2023-05-10T15:04:28;12.60;;;10.03;;
10987;SDS011;5547;42.672;23.230;2023-05-10T15:07:28;12.37;;;10.33;;
10987;SDS011;5547;42.672;23.230;2023-05-10T15:10:29;12.00;;;9.87;;
10987;SDS011;5547;42.672;23.230;2023-05-10T15:13:30;12.23;;;9.57;;
10987;SDS011;5547;42.672;23.230;2023-05-10T15:16:30;13.20;;;10.80;;
10987;SDS011;5547;42.672;23.230;2023-05-10T15:19:30;13.23;;;10.47;;
10987;SDS011;5547;42.672;23.230;2023-05-10T15:22:31;12.73;;;9.83;;
10987;SDS011;5547;42.672;23.230;2023-05-10T15:25:31;11.17;;;9.83;;
10987;SDS011;5547;42.672;23.230;2023-05-10T15:28:35;11.15;;;9.40;;
10987;SDS011;5547;42.672;23.230;2023-05-10T15:31:35;12.43;;;10.02;;
10987;SDS011;5547;42.672;23.230;2023-05-10T15:34:36;10.63;;;9.53;;
10987;SDS011;5547;42.672;23.230;2023-05-10T15:37:36;12.83;;;9.40;;
10987;SDS011;5547;42.672;23.230;2023-05-10T15:40:37;11.40;;;9.57;;
10987;SDS011;5547;42.672;23.230;2023-05-10T15:43:38;12.60;;;9.80;;
10987;SDS011;5547;42.672;23.230;2023-05-10T15:46:38;12.90;;;10.20;;
10987;SDS011;5547;42.672;23.230;2023-05-10T15:49:39;13.17;;;10.10;;
10987;SDS011;5547;42.672;23.230;2023-05-10T15:52:39;13.17;;;10.50;;
10987;SDS011;5547;42.672;23.230;2023-05-10T15:55:40;12.00;;;10.67;;
10987;SDS011;5547;42.672;23.230;2023-05-10T15:58:40;11.45;;;10.02;;
10987;SDS011;5547;42.672;23.230;2023-05-10T16:01:41;13.33;;;10.30;;
10987;SDS011;5547;42.672;23.230;2023-05-10T16:04:41;12.93;;;10.73;;
10987;SDS011;5547;42.672;23.230;2023-05-10T16:07:43;12.48;;;10.65;;
10987;SDS011;5547;42.672;23.230;2023-05-10T16:10:44;12.07;;;10.20;;
10987;SDS011;5547;42.672;23.230;2023-05-10T16:13:44;12.27;;;10.60;;
10987;SDS011;5547;42.672;23.230;2023-05-10T16:16:45;13.00;;;10.65;;
10987;SDS011;5547;42.672;23.230;2023-05-10T16:19:45;12.80;;;11.10;;
10987;SDS011;5547;42.672;23.230;2023-05-10T16:22:46;13.25;;;11.32;;
10987;SDS011;5547;42.672;23.230;2023-05-10T16:25:46;13.90;;;11.13;;
10987;SDS011;5547;42.672;23.230;2023-05-10T16:28:47;11.00;;;9.77;;
10987;SDS011;5547;42.672;23.230;2023-05-10T16:31:48;12.73;;;10.50;;
10987;SDS011;5547;42.672;23.230;2023-05-10T16:34:48;13.07;;;11.17;;
10987;SDS011;5547;42.672;23.230;2023-05-10T16:37:49;11.80;;;9.63;;
10987;SDS011;5547;42.672;23.230;2023-05-10T16:40:49;11.93;;;9.30;;
10987;SDS011;5547;42.672;23.230;2023-05-10T16:43:50;10.68;;;9.57;;
10987;SDS011;5547;42.672;23.230;2023-05-10T16:46:50;12.75;;;9.82;;
10987;SDS011;5547;42.672;23.230;2023-05-10T16:49:52;10.77;;;9.38;;
10987;SDS011;5547;42.672;23.230;2023-05-10T16:52:52;12.47;;;9.80;;
10987;SDS011;5547;42.672;23.230;2023-05-10T16:55:53;11.17;;;9.53;;
10987;SDS011;5547;42.672;23.230;2023-05-10T16:58:53;12.07;;;9.87;;
10987;SDS011;5547;42.672;23.230;2023-05-10T17:01:53;11.43;;;9.98;;
10987;SDS011;5547;42.672;23.230;2023-05-10T17:04:54;14.03;;;11.33;;
10987;SDS011;5547;42.672;23.230;2023-05-10T17:07:55;16.03;;;12.67;;
10987;SDS011;5547;42.672;23.230;2023-05-10T17:10:55;15.75;;;11.95;;
10987;SDS011;5547;42.672;23.230;2023-05-10T17:13:55;15.80;;;11.23;;
10987;SDS011;5547;42.672;23.230;2023-05-10T17:16:58;14.38;;;11.18;;
10987;SDS011;5547;42.672;23.230;2023-05-10T17:19:59;13.43;;;11.83;;
10987;SDS011;5547;42.672;23.230;2023-05-10T17:22:59;13.23;;;10.85;;
10987;SDS011;5547;42.672;23.230;2023-05-10T17:26:05;12.57;;;10.10;;
10987;SDS011;5547;42.672;23.230;2023-05-10T17:29:05;11.95;;;10.35;;
10987;SDS011;5547;42.672;23.230;2023-05-10T17:32:06;13.60;;;11.13;;
10987;SDS011;5547;42.672;23.230;2023-05-10T17:35:08;13.32;;;10.13;;
10987;SDS011;5547;42.672;23.230;2023-05-10T17:38:08;13.05;;;10.55;;
10987;SDS011;5547;42.672;23.230;2023-05-10T17:41:09;12.40;;;10.47;;
10987;SDS011;5547;42.672;23.230;2023-05-10T17:44:10;14.35;;;10.90;;
10987;SDS011;5547;42.672;23.230;2023-05-10T17:47:14;13.13;;;11.30;;
10987;SDS011;5547;42.672;23.230;2023-05-10T17:50:14;13.52;;;11.43;;
10987;SDS011;5547;42.672;23.230;2023-05-10T17:53:15;15.10;;;12.00;;
10987;SDS011;5547;42.672;23.230;2023-05-10T17:56:15;16.03;;;12.43;;
10987;SDS011;5547;42.672;23.230;2023-05-10T17:59:15;15.40;;;12.27;;
10987;SDS011;5547;42.672;23.230;2023-05-10T18:02:16;14.73;;;13.10;;
10987;SDS011;5547;42.672;23.230;2023-05-10T18:05:16;15.10;;;13.50;;
10987;SDS011;5547;42.672;23.230;2023-05-10T18:08:17;17.05;;;13.48;;
10987;SDS011;5547;42.672;23.230;2023-05-10T18:11:21;17.23;;;14.20;;
10987;SDS011;5547;42.672;23.230;2023-05-10T18:14:22;16.40;;;14.57;;
10987;SDS011;5547;42.672;23.230;2023-05-10T18:17:22;15.90;;;13.03;;
10987;SDS011;5547;42.672;23.230;2023-05-10T18:20:22;14.23;;;12.20;;
10987;SDS011;5547;42.672;23.230;2023-05-10T18:23:23;14.03;;;12.30;;
10987;SDS011;5547;42.672;23.230;2023-05-10T18:26:23;18.08;;;12.18;;